createdAt,value
2022-11-21T00:03:58.754Z,8.4
2022-11-21T00:09:35.694Z,8.4
2022-11-21T00:15:12.953Z,8.4
2022-11-21T00:20:40.081Z,8.3
2022-11-21T00:26:05.666Z,8.3
2022-11-21T00:31:42.905Z,8.3
2022-11-21T00:37:05.070Z,8.3
2022-11-21T00:42:41.873Z,8.3
2022-11-21T00:48:18.770Z,8.3
2022-11-21T00:53:24.796Z,8.3
2022-11-21T00:58:30.550Z,8.3
2022-11-21T01:04:08.054Z,8.2
2022-11-21T01:09:29.305Z,8.2
2022-11-21T01:14:36.064Z,8.2
2022-11-21T01:19:58.600Z,8.1
2022-11-21T01:25:35.914Z,8.1
2022-11-21T01:31:13.084Z,8.1
2022-11-21T01:36:35.848Z,8.2
2022-11-21T01:41:57.891Z,8.3
2022-11-21T01:47:36.131Z,8.3
2022-11-21T01:53:21.202Z,8.3
2022-11-21T01:58:43.763Z,8.4
2022-11-21T02:03:51.150Z,8.4
2022-11-21T02:09:14.176Z,8.4
2022-11-21T02:14:20.716Z,8.4
2022-11-21T02:19:43.436Z,8.4
2022-11-21T02:25:11.878Z,8.5
2022-11-21T02:30:02.430Z,8.5
2022-11-21T02:35:23.635Z,8.5
2022-11-21T02:40:46.372Z,8.5
2022-11-21T02:46:09.380Z,8.6
2022-11-21T02:51:47.022Z,8.6
2022-11-21T02:57:26.097Z,8.7
2022-11-21T03:02:53.630Z,8.7
2022-11-21T03:08:31.933Z,8.8
2022-11-21T03:14:09.763Z,8.8
2022-11-21T03:19:31.782Z,8.9
2022-11-21T03:25:09.511Z,9
2022-11-21T03:30:47.347Z,9
2022-11-21T03:36:24.592Z,9
2022-11-21T03:42:03.140Z,9
2022-11-21T03:47:25.954Z,9.1
2022-11-21T03:53:03.200Z,9.1
2022-11-21T03:58:25.514Z,9.1
2022-11-21T04:04:09.255Z,9.1
2022-11-21T04:09:47.189Z,9.2
2022-11-21T04:15:30.249Z,9.3
2022-11-21T04:21:08.671Z,9.6
2022-11-21T04:26:45.282Z,9.6
2022-11-21T04:32:23.943Z,9.4
2022-11-21T04:37:31.281Z,9.3
2022-11-21T04:43:08.514Z,9.2
2022-11-21T04:48:34.079Z,9.1
2022-11-21T04:54:16.943Z,8.9
2022-11-21T04:59:23.686Z,8.8
2022-11-21T05:05:02.467Z,8.7
2022-11-21T05:10:09.258Z,8.6
2022-11-21T05:15:46.714Z,8.4
2022-11-21T05:21:27.528Z,8.2
2022-11-21T05:26:49.966Z,8.1
2022-11-21T05:32:15.182Z,7.9
2022-11-21T05:37:58.328Z,7.8
2022-11-21T05:43:36.058Z,7.7
2022-11-21T05:49:13.760Z,7.6
2022-11-21T05:54:04.935Z,7.4
2022-11-21T05:59:47.050Z,7.3
2022-11-21T06:05:15.115Z,7.2
2022-11-21T06:10:57.345Z,7.1
2022-11-21T06:16:23.780Z,7
2022-11-21T06:21:35.353Z,6.9
2022-11-21T06:27:14.707Z,6.8
2022-11-21T06:32:58.009Z,6.7
2022-11-21T06:38:26.172Z,6.6
2022-11-21T06:44:04.175Z,6.6
2022-11-21T06:49:28.094Z,6.5
2022-11-21T06:55:08.209Z,6.4
2022-11-21T07:00:45.743Z,6.3
2022-11-21T07:06:29.369Z,6.3
2022-11-21T07:13:10.090Z,6.1
2022-11-21T07:18:48.226Z,6
2022-11-21T07:24:29.228Z,5.9
2022-11-21T07:30:08.506Z,5.8
2022-11-21T07:35:46.839Z,5.8
2022-11-21T07:41:09.655Z,5.8
2022-11-21T07:46:53.013Z,5.7
2022-11-21T07:52:15.025Z,5.8
2022-11-21T07:57:58.434Z,5.9
2022-11-21T08:03:22.577Z,6.3
2022-11-21T08:09:01.261Z,7.2
2022-11-21T08:14:44.604Z,9.2
2022-11-21T08:20:22.556Z,13.4
2022-11-21T08:26:05.664Z,16.3
2022-11-21T08:31:50.094Z,17.3
2022-11-21T08:37:28.632Z,17.9
2022-11-21T08:42:51.250Z,19.5
2022-11-21T08:48:42.039Z,19.6
2022-11-21T08:54:24.623Z,18.9
2022-11-21T09:00:03.703Z,19
2022-11-21T09:05:48.128Z,18.8
2022-11-21T09:11:12.027Z,18.5
2022-11-21T09:16:57.994Z,18.3
2022-11-21T09:22:39.265Z,18.4
2022-11-21T09:28:16.990Z,18.3
2022-11-21T09:33:55.364Z,17.8
2022-11-21T09:39:36.522Z,17.3
2022-11-21T09:45:14.441Z,16.8
2022-11-21T09:50:54.261Z,15.9
2022-11-21T09:56:33.024Z,15.3
2022-11-21T10:02:11.324Z,14.4
2022-11-21T10:07:56.599Z,13.7
2022-11-21T10:13:38.356Z,13.1
2022-11-21T10:19:18.146Z,12.5
2022-11-21T10:24:56.572Z,12.1
2022-11-21T10:30:35.426Z,11.7
2022-11-21T10:36:13.901Z,11.5
2022-11-21T10:41:56.417Z,11.4
2022-11-21T10:47:19.668Z,11.1
2022-11-21T10:52:57.708Z,10.9
2022-11-21T10:58:40.062Z,10.6
2022-11-21T11:05:04.011Z,10.4
2022-11-21T11:10:27.844Z,10.3
2022-11-21T11:16:22.459Z,10.3
2022-11-21T11:22:15.544Z,10.7
2022-11-21T11:27:39.319Z,11.1
2022-11-21T11:33:17.486Z,11.3
2022-11-21T11:38:40.269Z,11.4
2022-11-21T11:44:05.070Z,11.9
2022-11-21T11:50:13.584Z,12.9
2022-11-21T11:55:51.683Z,14
2022-11-21T12:01:30.506Z,14.9
2022-11-21T12:08:54.832Z,16.8
2022-11-21T12:14:34.800Z,17.9
2022-11-21T12:20:21.137Z,17.6
2022-11-21T12:26:00.618Z,17.1
2022-11-21T12:31:39.152Z,16.6
2022-11-21T12:37:30.088Z,16.3
2022-11-21T12:43:14.857Z,16.3
2022-11-21T12:48:41.798Z,16.4
2022-11-21T12:54:25.966Z,17.1
2022-11-21T13:05:37.413Z,16.4
2022-11-21T13:11:17.218Z,15.8
2022-11-21T13:16:56.056Z,15.1
2022-11-21T13:22:33.616Z,14.5
2022-11-21T13:27:57.487Z,13.8
2022-11-21T13:33:37.670Z,13.1
2022-11-21T13:39:16.470Z,12.6
2022-11-21T13:45:33.303Z,11.9
2022-11-21T13:51:18.840Z,11.4
2022-11-21T13:57:05.099Z,10.9
2022-11-21T14:02:43.661Z,10.5
2022-11-21T14:08:23.095Z,10.1
2022-11-21T14:14:05.563Z,9.7
2022-11-21T14:19:43.256Z,9.3
2022-11-21T14:25:27.016Z,8.9
2022-11-21T14:31:11.654Z,8.6
2022-11-21T14:36:53.185Z,8.3
2022-11-21T14:43:10.340Z,7.9
2022-11-21T14:48:38.715Z,7.7
2022-11-21T14:54:23.800Z,7.4
2022-11-21T15:01:02.055Z,7.1
2022-11-21T15:07:07.030Z,6.9
2022-11-21T15:14:49.387Z,6.6
2022-11-21T15:21:02.506Z,6.2
2022-11-21T15:26:40.440Z,5.9
2022-11-21T15:32:23.075Z,5.6
2022-11-21T15:38:40.627Z,5.4
2022-11-21T16:01:30.837Z,4.6
2022-11-21T16:07:00.653Z,4.5
2022-11-21T16:12:45.302Z,4.4
2022-11-21T16:18:28.253Z,4.3
2022-11-21T16:24:14.371Z,4.2
2022-11-21T16:29:52.378Z,4.1
2022-11-21T16:35:15.823Z,4
2022-11-21T16:41:03.682Z,3.9
2022-11-21T16:46:26.417Z,3.8
2022-11-21T16:52:08.998Z,3.8
2022-11-21T16:57:51.330Z,3.8
2022-11-21T17:03:16.024Z,3.8
2022-11-21T17:08:54.883Z,3.7
2022-11-21T17:14:17.211Z,3.7
2022-11-21T17:19:55.682Z,3.6
2022-11-21T17:25:19.199Z,3.6
2022-11-21T17:31:03.437Z,3.6
2022-11-21T17:36:44.769Z,3.5
2022-11-21T17:42:24.084Z,3.5
2022-11-21T17:48:09.510Z,3.5
2022-11-21T17:53:33.197Z,3.5
2022-11-21T17:59:03.682Z,3.5
2022-11-21T18:04:49.538Z,3.4
2022-11-21T18:10:57.377Z,3.4
2022-11-21T18:16:28.864Z,3.4
2022-11-21T18:21:59.539Z,3.4
2022-11-21T18:27:38.886Z,3.3
2022-11-21T18:33:19.892Z,3.3
2022-11-21T18:39:09.048Z,3.2
2022-11-21T18:44:56.447Z,3.2
2022-11-21T18:51:05.228Z,3.2
2022-11-21T18:56:47.915Z,3.2
2022-11-21T19:02:12.016Z,3.1
2022-11-21T19:07:39.598Z,3.1
2022-11-21T19:13:19.253Z,3.1
2022-11-21T19:19:32.856Z,3.1
2022-11-21T19:25:13.415Z,3.1
2022-11-21T19:30:53.372Z,3.1
2022-11-21T19:36:36.025Z,3.1
2022-11-21T19:42:01.702Z,3.1
2022-11-21T19:47:27.452Z,3.2
2022-11-21T19:53:18.203Z,3.2
2022-11-21T19:58:27.732Z,3.2
2022-11-21T20:03:55.605Z,3.2
2022-11-21T20:09:51.386Z,3.2
2022-11-21T20:15:21.728Z,3.3
2022-11-21T20:20:45.819Z,3.2
2022-11-21T20:26:28.658Z,3.3
2022-11-21T20:32:12.512Z,3.2
2022-11-21T20:38:43.157Z,3.2
2022-11-21T20:46:24.101Z,3.2
2022-11-21T20:55:04.414Z,3.1
2022-11-21T21:00:44.851Z,3.1
2022-11-21T21:06:24.041Z,3
2022-11-21T21:12:45.825Z,3
2022-11-21T21:18:26.687Z,3
2022-11-21T21:24:23.024Z,3
2022-11-21T21:30:09.344Z,3
2022-11-21T21:35:51.878Z,3.1
2022-11-21T21:41:34.348Z,3
2022-11-21T21:47:13.496Z,2.9
2022-11-21T21:52:51.937Z,2.9
2022-11-21T21:58:36.519Z,2.8
2022-11-21T22:04:15.353Z,2.8
2022-11-21T22:09:26.228Z,2.8
2022-11-21T22:15:03.587Z,2.7
2022-11-21T22:20:42.365Z,2.7
2022-11-21T22:26:38.630Z,2.7
2022-11-21T22:32:01.320Z,2.6
2022-11-21T22:37:42.193Z,2.6
2022-11-21T22:43:10.275Z,2.6
2022-11-21T22:48:48.822Z,2.6
2022-11-21T22:54:14.455Z,2.4
2022-11-21T22:59:52.863Z,2.4
2022-11-21T23:05:31.164Z,2.4
2022-11-21T23:11:09.675Z,2.4
2022-11-21T23:16:32.725Z,2.3
2022-11-21T23:21:40.092Z,2.3
2022-11-21T23:27:02.475Z,2.3
2022-11-21T23:32:25.093Z,2.3
2022-11-21T23:38:01.901Z,2.3
2022-11-21T23:43:40.154Z,2.3
2022-11-21T23:49:02.799Z,2.3
2022-11-21T23:54:24.921Z,2.2
